createdAt,value
2019-04-22T00:02:22.552Z,8.40
2019-04-22T00:05:04.645Z,8.40
2019-04-22T00:07:48.715Z,8.30
2019-04-22T00:10:19.837Z,8.20
2019-04-22T00:12:55.996Z,8.20
2019-04-22T00:15:18.117Z,8.20
2019-04-22T00:18:01.689Z,8.10
2019-04-22T00:20:25.161Z,8.10
2019-04-22T00:22:51.872Z,8.00
2019-04-22T00:25:32.951Z,8.00
2019-04-22T00:28:02.667Z,8.00
2019-04-22T00:30:40.841Z,7.90
2019-04-22T00:33:07.849Z,7.90
2019-04-22T00:35:46.285Z,7.80
2019-04-22T00:38:17.311Z,7.80
2019-04-22T00:40:44.914Z,7.70
2019-04-22T00:43:21.071Z,7.70
2019-04-22T00:48:21.110Z,7.60
2019-04-22T00:51:03.021Z,7.50
2019-04-22T00:53:33.352Z,7.40
2019-04-22T00:56:14.323Z,7.40
2019-04-22T00:58:41.249Z,7.30
2019-04-22T01:01:14.385Z,7.30
2019-04-22T01:06:17.247Z,7.20
2019-04-22T01:08:55.003Z,7.20
2019-04-22T01:11:25.188Z,7.10
2019-04-22T01:13:44.199Z,7.10
2019-04-22T01:18:49.146Z,7.00
2019-04-22T01:21:40.497Z,7.00
2019-04-22T01:23:49.107Z,6.90
2019-04-22T01:26:21.315Z,6.90
2019-04-22T01:28:50.096Z,6.80
2019-04-22T01:31:17.169Z,6.80
2019-04-22T01:33:49.661Z,6.70
2019-04-22T01:36:30.122Z,6.70
2019-04-22T01:39:05.421Z,6.70
2019-04-22T01:41:48.780Z,6.60
2019-04-22T01:44:29.624Z,6.60
2019-04-22T01:46:47.776Z,6.60
2019-04-22T01:49:19.144Z,6.60
2019-04-22T01:51:51.748Z,6.50
2019-04-22T01:54:22.282Z,6.50
2019-04-22T01:56:51.097Z,6.40
2019-04-22T01:59:11.258Z,6.40
2019-04-22T02:01:53.098Z,6.30
2019-04-22T02:04:30.404Z,6.30
2019-04-22T02:06:53.779Z,6.30
2019-04-22T02:09:24.079Z,6.20
2019-04-22T02:11:54.989Z,6.20
2019-04-22T02:14:26.978Z,6.20
2019-04-22T02:16:56.768Z,6.10
2019-04-22T02:19:30.359Z,6.00
2019-04-22T02:21:56.199Z,6.00
2019-04-22T02:24:27.826Z,6.00
2019-04-22T02:26:54.247Z,5.90
2019-04-22T02:29:29.895Z,5.90
2019-04-22T02:37:04.962Z,5.80
2019-04-22T02:44:42.247Z,5.70
2019-04-22T02:52:20.430Z,5.60
2019-04-22T02:55:02.867Z,5.60
2019-04-22T02:57:26.185Z,5.50
2019-04-22T02:59:53.130Z,5.50
2019-04-22T03:02:19.482Z,5.40
2019-04-22T03:04:43.766Z,5.40
2019-04-22T03:07:14.683Z,5.40
2019-04-22T03:09:49.506Z,5.40
2019-04-22T03:12:26.948Z,5.30
2019-04-22T03:14:48.626Z,5.30
2019-04-22T03:22:21.013Z,5.20
2019-04-22T03:25:23.791Z,5.20
2019-04-22T03:27:28.440Z,5.20
2019-04-22T03:33:05.464Z,5.10
2019-04-22T03:42:56.027Z,5.00
2019-04-22T03:45:28.439Z,5.00
2019-04-22T03:52:56.555Z,5.00
2019-04-22T03:55:23.010Z,4.90
2019-04-22T04:00:35.695Z,4.90
2019-04-22T04:02:55.950Z,4.90
2019-04-22T04:05:43.941Z,4.80
2019-04-22T04:08:09.364Z,4.80
2019-04-22T04:10:35.473Z,4.80
2019-04-22T04:13:02.740Z,4.80
2019-04-22T04:15:32.682Z,4.80
2019-04-22T04:17:56.930Z,4.70
2019-04-22T04:30:42.765Z,4.70
2019-04-22T04:33:23.266Z,4.70
2019-04-22T04:37:58.839Z,4.70
2019-04-22T04:40:41.884Z,4.70
2019-04-22T04:50:58.573Z,4.80
2019-04-22T04:53:24.963Z,4.80
2019-04-22T04:55:48.537Z,4.90
2019-04-22T04:58:36.847Z,4.90
2019-04-22T05:00:58.020Z,4.90
2019-04-22T05:03:29.757Z,5.00
2019-04-22T05:05:59.023Z,5.10
2019-04-22T05:08:40.579Z,5.20
2019-04-22T05:10:56.658Z,5.40
2019-04-22T05:13:33.472Z,5.60
2019-04-22T05:16:10.807Z,5.90
2019-04-22T05:18:31.242Z,6.10
2019-04-22T05:23:30.084Z,6.60
2019-04-22T05:25:57.865Z,6.90
2019-04-22T05:28:24.443Z,7.20
2019-04-22T05:30:57.640Z,7.40
2019-04-22T05:33:33.199Z,7.60
2019-04-22T05:36:03.054Z,7.80
2019-04-22T05:38:35.008Z,8.00
2019-04-22T05:41:02.774Z,8.20
2019-04-22T05:43:34.535Z,8.40
2019-04-22T05:46:04.152Z,8.70
2019-04-22T05:48:38.091Z,8.90
2019-04-22T05:51:07.801Z,9.20
2019-04-22T05:53:34.197Z,9.50
2019-04-22T05:56:13.974Z,9.70
2019-04-22T05:58:39.815Z,10.00
2019-04-22T06:03:46.062Z,10.60
2019-04-22T06:06:15.044Z,11.00
2019-04-22T06:08:45.500Z,11.20
2019-04-22T06:11:24.113Z,11.50
2019-04-22T06:13:46.932Z,11.80
2019-04-22T06:16:26.369Z,12.10
2019-04-22T06:18:58.299Z,12.50
2019-04-22T06:21:35.711Z,12.80
2019-04-22T06:24:04.838Z,13.10
2019-04-22T06:26:37.540Z,13.50
2019-04-22T06:29:01.424Z,13.90
2019-04-22T06:34:13.423Z,15.00
2019-04-22T06:36:39.439Z,15.30
2019-04-22T06:39:10.441Z,15.70
2019-04-22T06:41:40.235Z,16.10
2019-04-22T06:44:16.191Z,16.20
2019-04-22T06:46:41.894Z,16.70
2019-04-22T06:49:14.427Z,16.90
2019-04-22T06:54:14.073Z,17.70
2019-04-22T06:56:42.792Z,17.80
2019-04-22T06:59:14.766Z,17.80
2019-04-22T07:02:02.368Z,18.10
2019-04-22T07:04:16.594Z,18.40
2019-04-22T07:11:52.856Z,18.90
2019-04-22T07:14:20.462Z,19.30
2019-04-22T07:16:54.475Z,19.40
2019-04-22T07:19:40.989Z,19.20
2019-04-22T07:21:57.651Z,19.20
2019-04-22T07:24:40.631Z,19.20
2019-04-22T07:26:57.577Z,19.30
2019-04-22T07:29:35.331Z,19.10
2019-04-22T07:32:01.144Z,19.30
2019-04-22T07:34:34.617Z,19.50
2019-04-22T07:39:35.639Z,19.70
2019-04-22T07:42:17.121Z,19.90
2019-04-22T07:44:43.037Z,20.00
2019-04-22T07:47:21.748Z,19.80
2019-04-22T07:52:09.743Z,20.10
2019-04-22T07:54:47.918Z,20.00
2019-04-22T07:57:24.367Z,20.40
2019-04-22T07:59:50.714Z,20.60
2019-04-22T08:02:16.057Z,20.60
2019-04-22T08:04:59.034Z,20.90
2019-04-22T08:07:17.825Z,20.90
2019-04-22T08:12:18.883Z,20.70
2019-04-22T08:14:53.739Z,20.90
2019-04-22T08:17:47.851Z,20.80
2019-04-22T08:19:56.027Z,20.90
2019-04-22T08:22:23.912Z,21.20
2019-04-22T08:24:56.376Z,21.10
2019-04-22T08:27:24.653Z,21.30
2019-04-22T08:32:27.976Z,21.70
2019-04-22T08:34:58.091Z,21.80
2019-04-22T08:37:49.270Z,21.50
2019-04-22T08:40:07.590Z,21.60
2019-04-22T08:42:43.426Z,21.90
2019-04-22T08:45:09.491Z,22.00
2019-04-22T08:47:36.270Z,21.90
2019-04-22T08:50:12.039Z,21.60
2019-04-22T08:53:00.343Z,21.60
2019-04-22T08:55:12.710Z,21.80
2019-04-22T09:00:06.831Z,21.40
2019-04-22T09:05:36.799Z,21.50
2019-04-22T09:08:05.370Z,21.90
2019-04-22T09:10:24.372Z,22.00
2019-04-22T09:15:26.090Z,22.20
2019-04-22T09:17:57.127Z,22.40
2019-04-22T09:20:26.807Z,22.30
2019-04-22T09:23:04.627Z,22.30
2019-04-22T09:25:29.974Z,22.20
2019-04-22T09:28:05.569Z,22.50
2019-04-22T09:30:40.436Z,22.50
2019-04-22T09:33:17.087Z,22.70
2019-04-22T09:35:45.159Z,23.10
2019-04-22T09:38:25.459Z,23.00
2019-04-22T09:40:54.743Z,23.30
2019-04-22T09:43:18.389Z,23.30
2019-04-22T09:45:42.759Z,23.10
2019-04-22T09:48:16.584Z,23.30
2019-04-22T09:50:50.582Z,22.90
2019-04-22T09:53:25.530Z,22.90
2019-04-22T09:55:56.787Z,23.10
2019-04-22T09:58:29.586Z,23.60
2019-04-22T10:03:50.823Z,23.70
2019-04-22T10:09:02.260Z,24.30
2019-04-22T10:14:01.672Z,24.20
2019-04-22T10:19:04.260Z,24.10
2019-04-22T10:21:40.297Z,23.80
2019-04-22T10:24:05.925Z,24.10
2019-04-22T10:33:56.152Z,24.60
2019-04-22T10:36:15.102Z,24.70
2019-04-22T10:38:44.602Z,24.70
2019-04-22T10:41:14.387Z,25.00
2019-04-22T10:43:43.772Z,24.70
2019-04-22T10:46:13.856Z,24.80
2019-04-22T10:48:44.252Z,24.90
2019-04-22T10:51:16.818Z,24.90
2019-04-22T10:53:47.161Z,24.50
2019-04-22T10:56:16.966Z,24.90
2019-04-22T10:58:46.669Z,24.60
2019-04-22T11:01:16.045Z,25.00
2019-04-22T11:03:45.649Z,25.00
2019-04-22T11:06:15.140Z,25.00
2019-04-22T11:08:52.236Z,25.00
2019-04-22T11:11:30.105Z,25.00
2019-04-22T11:13:47.608Z,25.20
2019-04-22T11:16:17.420Z,25.60
2019-04-22T11:18:47.544Z,25.40
2019-04-22T11:21:17.968Z,25.50
2019-04-22T11:23:47.319Z,25.50
2019-04-22T11:26:17.717Z,25.40
2019-04-22T11:28:47.611Z,25.50
2019-04-22T11:31:18.552Z,25.30
2019-04-22T11:33:48.431Z,25.70
2019-04-22T11:36:17.871Z,25.80
2019-04-22T11:38:53.005Z,26.00
2019-04-22T11:41:19.359Z,26.00
2019-04-22T11:43:49.398Z,25.90
2019-04-22T11:46:18.851Z,25.90
2019-04-22T11:48:48.074Z,25.70
2019-04-22T11:51:18.223Z,25.40
2019-04-22T11:53:49.025Z,25.60
2019-04-22T11:56:18.858Z,26.10
2019-04-22T11:58:48.916Z,26.10
2019-04-22T12:01:19.207Z,25.70
2019-04-22T12:03:49.612Z,25.40
2019-04-22T12:06:19.858Z,25.00
2019-04-22T12:08:50.046Z,25.80
2019-04-22T12:11:20.670Z,25.80
2019-04-22T12:13:51.767Z,25.40
2019-04-22T12:16:21.404Z,25.50
2019-04-22T12:18:51.178Z,25.30
2019-04-22T12:21:21.426Z,25.20
2019-04-22T12:23:51.011Z,24.90
2019-04-22T12:26:21.506Z,25.00
2019-04-22T12:28:53.056Z,25.20
2019-04-22T12:31:23.776Z,24.90
2019-04-22T12:33:53.391Z,24.90
2019-04-22T12:36:22.753Z,25.00
2019-04-22T12:38:53.560Z,25.20
2019-04-22T12:41:23.640Z,25.50
2019-04-22T12:43:53.479Z,25.50
2019-04-22T12:46:41.867Z,25.50
2019-04-22T12:49:12.172Z,25.50
2019-04-22T12:51:42.867Z,25.60
2019-04-22T12:54:13.143Z,25.20
2019-04-22T12:56:43.862Z,25.40
2019-04-22T12:59:14.007Z,25.80
2019-04-22T13:01:49.145Z,25.80
2019-04-22T13:04:21.021Z,25.90
2019-04-22T13:06:50.003Z,25.70
2019-04-22T13:09:21.281Z,25.90
2019-04-22T13:11:51.045Z,26.00
2019-04-22T13:14:21.192Z,26.20
2019-04-22T13:16:51.168Z,26.00
2019-04-22T13:19:22.749Z,26.20
2019-04-22T13:21:51.699Z,25.90
2019-04-22T13:24:21.806Z,25.90
2019-04-22T13:26:52.836Z,25.40
2019-04-22T13:29:23.254Z,25.40
2019-04-22T13:31:53.162Z,25.50
2019-04-22T13:34:31.550Z,25.70
2019-04-22T13:36:54.949Z,25.90
2019-04-22T13:39:25.064Z,25.30
2019-04-22T13:42:00.454Z,25.00
2019-04-22T13:44:25.868Z,24.90
2019-04-22T13:47:17.463Z,24.90
2019-04-22T13:49:59.287Z,25.30
2019-04-22T13:52:35.238Z,25.40
2019-04-22T13:54:57.944Z,25.50
2019-04-22T13:57:19.947Z,25.30
2019-04-22T13:59:40.369Z,25.50
2019-04-22T14:02:19.973Z,25.80
2019-04-22T14:04:50.661Z,26.10
2019-04-22T14:07:20.879Z,26.30
2019-04-22T14:09:50.798Z,26.00
2019-04-22T14:12:21.711Z,26.00
2019-04-22T14:14:52.600Z,26.50
2019-04-22T14:17:22.995Z,26.70
2019-04-22T14:19:52.800Z,26.50
2019-04-22T14:22:22.203Z,26.60
2019-04-22T14:24:52.415Z,26.90
2019-04-22T14:27:31.711Z,26.60
2019-04-22T14:29:53.617Z,26.70
2019-04-22T14:32:27.453Z,26.90
2019-04-22T14:34:55.305Z,26.60
2019-04-22T14:37:24.770Z,26.80
2019-04-22T14:39:54.031Z,26.60
2019-04-22T14:42:43.972Z,26.40
2019-04-22T14:45:26.114Z,26.00
2019-04-22T14:47:51.250Z,26.30
2019-04-22T14:50:20.671Z,26.50
2019-04-22T14:52:53.468Z,26.60
2019-04-22T14:55:08.058Z,26.50
2019-04-22T14:57:32.285Z,26.30
2019-04-22T15:00:02.367Z,26.40
2019-04-22T15:02:31.987Z,26.70
2019-04-22T15:05:01.642Z,26.80
2019-04-22T15:07:30.990Z,26.20
2019-04-22T15:10:01.819Z,26.20
2019-04-22T15:12:39.188Z,26.50
2019-04-22T15:15:09.143Z,25.90
2019-04-22T15:17:54.592Z,25.20
2019-04-22T15:20:48.820Z,25.40
2019-04-22T15:23:17.064Z,24.90
2019-04-22T15:25:46.569Z,24.90
2019-04-22T15:28:15.778Z,24.90
2019-04-22T15:30:45.681Z,25.00
2019-04-22T15:33:15.284Z,24.80
2019-04-22T15:35:45.210Z,24.50
2019-04-22T15:38:15.568Z,24.60
2019-04-22T15:40:45.039Z,24.50
2019-04-22T15:43:14.941Z,24.30
2019-04-22T15:45:44.375Z,24.70
2019-04-22T15:48:14.684Z,24.70
2019-04-22T15:50:44.729Z,24.80
2019-04-22T15:53:14.058Z,24.50
2019-04-22T15:55:44.784Z,24.20
2019-04-22T15:58:15.455Z,24.10
2019-04-22T16:00:58.265Z,23.60
2019-04-22T16:03:16.387Z,23.50
2019-04-22T16:05:46.145Z,23.40
2019-04-22T16:08:15.319Z,23.50
2019-04-22T16:10:46.013Z,23.20
2019-04-22T16:13:22.326Z,23.20
2019-04-22T16:15:46.734Z,22.90
2019-04-22T16:18:16.141Z,22.80
2019-04-22T16:20:46.199Z,22.40
2019-04-22T16:23:40.639Z,22.20
2019-04-22T16:26:15.422Z,21.90
2019-04-22T16:28:55.626Z,21.70
2019-04-22T16:31:25.083Z,21.70
2019-04-22T16:33:56.189Z,21.60
2019-04-22T16:36:26.938Z,21.50
2019-04-22T16:38:57.035Z,21.60
2019-04-22T16:41:26.580Z,21.60
2019-04-22T16:43:56.298Z,21.30
2019-04-22T16:46:25.794Z,21.30
2019-04-22T16:48:55.972Z,21.10
2019-04-22T16:51:25.577Z,20.90
2019-04-22T16:53:55.797Z,20.80
2019-04-22T16:56:25.183Z,20.80
2019-04-22T16:58:56.834Z,20.60
2019-04-22T17:02:01.094Z,20.60
2019-04-22T17:04:55.977Z,20.50
2019-04-22T17:07:26.458Z,20.40
2019-04-22T17:09:57.508Z,20.30
2019-04-22T17:12:38.625Z,20.20
2019-04-22T17:15:02.756Z,20.10
2019-04-22T17:17:30.676Z,20.00
2019-04-22T17:20:00.061Z,19.90
2019-04-22T17:22:29.581Z,19.80
2019-04-22T17:25:00.211Z,19.80
2019-04-22T17:27:31.456Z,19.70
2019-04-22T17:30:02.294Z,19.60
2019-04-22T17:32:31.842Z,19.60
2019-04-22T17:35:02.221Z,19.50
2019-04-22T17:37:34.127Z,19.40
2019-04-22T17:40:19.436Z,19.30
2019-04-22T17:42:49.527Z,19.20
2019-04-22T17:45:41.555Z,19.10
2019-04-22T17:48:44.869Z,19.00
2019-04-22T17:51:00.016Z,18.90
2019-04-22T17:53:33.506Z,18.80
2019-04-22T17:56:02.632Z,18.70
2019-04-22T17:58:36.073Z,18.60
2019-04-22T18:01:02.475Z,18.50
2019-04-22T18:03:24.109Z,18.30
2019-04-22T18:05:52.172Z,18.20
2019-04-22T18:08:36.565Z,18.20
2019-04-22T18:11:05.939Z,18.10
2019-04-22T18:13:41.052Z,18.00
2019-04-22T18:16:15.139Z,17.90
2019-04-22T18:18:43.716Z,17.80
2019-04-22T18:21:08.877Z,17.70
2019-04-22T18:23:28.387Z,17.60
2019-04-22T18:26:12.588Z,17.50
2019-04-22T18:28:43.606Z,17.40
2019-04-22T18:31:12.047Z,17.40
2019-04-22T18:33:46.432Z,17.30
2019-04-22T18:36:17.216Z,17.30
2019-04-22T18:38:56.470Z,17.20
2019-04-22T18:41:12.548Z,17.10
2019-04-22T18:43:51.741Z,17.00
2019-04-22T18:46:20.905Z,17.00
2019-04-22T18:48:53.826Z,16.90
2019-04-22T18:51:29.150Z,16.90
2019-04-22T18:54:24.261Z,16.80
2019-04-22T18:56:52.521Z,16.70
2019-04-22T18:59:15.784Z,16.70
2019-04-22T19:01:39.445Z,16.60
2019-04-22T19:04:17.483Z,16.60
2019-04-22T19:07:00.373Z,16.60
2019-04-22T19:09:45.662Z,16.40
2019-04-22T19:12:17.995Z,16.40
2019-04-22T19:14:45.184Z,16.40
2019-04-22T19:17:19.145Z,16.30
2019-04-22T19:19:54.098Z,16.30
2019-04-22T19:22:07.470Z,16.20
2019-04-22T19:24:39.786Z,16.10
2019-04-22T19:27:09.199Z,16.10
2019-04-22T19:29:46.778Z,16.00
2019-04-22T19:32:18.452Z,16.00
2019-04-22T19:34:42.789Z,15.90
2019-04-22T19:37:14.449Z,15.80
2019-04-22T19:39:52.897Z,15.80
2019-04-22T19:42:25.321Z,15.80
2019-04-22T19:44:50.816Z,15.80
2019-04-22T19:47:33.350Z,15.80
2019-04-22T19:49:58.439Z,15.70
2019-04-22T19:54:57.287Z,15.70
2019-04-22T19:57:22.550Z,15.70
2019-04-22T19:59:58.825Z,15.60
2019-04-22T20:03:06.618Z,15.60
2019-04-22T20:05:43.619Z,15.50
2019-04-22T20:08:14.459Z,15.50
2019-04-22T20:10:46.061Z,15.50
2019-04-22T20:13:24.290Z,15.40
2019-04-22T20:15:41.169Z,15.40
2019-04-22T20:18:27.895Z,15.40
2019-04-22T20:20:54.058Z,15.40
2019-04-22T20:23:15.903Z,15.30
2019-04-22T20:25:48.655Z,15.30
2019-04-22T20:28:24.143Z,15.20
2019-04-22T20:30:55.456Z,15.10
2019-04-22T20:33:33.207Z,15.10
2019-04-22T20:35:57.732Z,15.10
2019-04-22T20:38:26.228Z,15.00
2019-04-22T20:40:55.033Z,14.90
2019-04-22T20:43:38.617Z,14.90
2019-04-22T20:46:05.952Z,14.90
2019-04-22T20:48:56.970Z,14.80
2019-04-22T20:51:41.799Z,14.70
2019-04-22T20:54:02.156Z,14.70
2019-04-22T20:56:34.248Z,14.60
2019-04-22T20:59:09.908Z,14.50
2019-04-22T21:01:41.520Z,14.40
2019-04-22T21:03:57.392Z,14.40
2019-04-22T21:06:37.073Z,14.30
2019-04-22T21:09:15.454Z,14.30
2019-04-22T21:11:40.871Z,14.20
2019-04-22T21:14:12.236Z,14.20
2019-04-22T21:16:51.607Z,14.10
2019-04-22T21:19:33.554Z,14.00
2019-04-22T21:21:50.184Z,13.90
2019-04-22T21:24:20.584Z,13.90
2019-04-22T21:26:49.178Z,13.90
2019-04-22T21:29:20.495Z,13.80
2019-04-22T21:31:54.851Z,13.70
2019-04-22T21:34:21.558Z,13.70
2019-04-22T21:37:02.581Z,13.60
2019-04-22T21:39:29.031Z,13.60
2019-04-22T21:42:00.186Z,13.50
2019-04-22T21:44:32.346Z,13.50
2019-04-22T21:47:10.519Z,13.40
2019-04-22T21:49:37.234Z,13.30
2019-04-22T21:52:05.394Z,13.30
2019-04-22T21:54:37.589Z,13.20
2019-04-22T21:57:27.832Z,13.10
2019-04-22T22:00:00.723Z,13.10
2019-04-22T22:02:31.333Z,13.00
2019-04-22T22:04:54.798Z,12.90
2019-04-22T22:07:14.419Z,12.90
2019-04-22T22:10:02.203Z,12.90
2019-04-22T22:12:37.480Z,12.80
2019-04-22T22:15:05.473Z,12.80
2019-04-22T22:17:30.714Z,12.70
2019-04-22T22:20:03.498Z,12.60
2019-04-22T22:22:46.614Z,12.60
2019-04-22T22:25:09.822Z,12.60
2019-04-22T22:27:39.020Z,12.50
2019-04-22T22:30:29.309Z,12.40
2019-04-22T22:32:40.232Z,12.40
2019-04-22T22:35:16.851Z,12.30
2019-04-22T22:37:35.920Z,12.30
2019-04-22T22:40:00.953Z,12.20
2019-04-22T22:42:33.625Z,12.10
2019-04-22T22:45:07.813Z,12.10
2019-04-22T22:47:44.590Z,12.10
2019-04-22T22:50:17.278Z,12.10
2019-04-22T22:55:18.054Z,12.00
2019-04-22T22:57:56.757Z,11.90
2019-04-22T23:00:19.606Z,11.90
2019-04-22T23:03:06.807Z,11.90
2019-04-22T23:05:29.109Z,11.80
2019-04-22T23:08:17.017Z,11.80
2019-04-22T23:10:25.268Z,11.70
2019-04-22T23:13:01.618Z,11.70
2019-04-22T23:15:25.335Z,11.70
2019-04-22T23:17:41.306Z,11.70
2019-04-22T23:20:11.728Z,11.60
2019-04-22T23:23:09.387Z,11.50
2019-04-22T23:25:33.250Z,11.40
2019-04-22T23:28:09.847Z,11.40
2019-04-22T23:30:56.861Z,11.30
2019-04-22T23:33:39.247Z,11.30
2019-04-22T23:36:20.900Z,11.30
2019-04-22T23:38:59.261Z,11.30
2019-04-22T23:41:50.442Z,11.20
2019-04-22T23:44:10.337Z,11.20
2019-04-22T23:46:42.624Z,11.20
2019-04-22T23:49:16.239Z,11.20
2019-04-22T23:51:55.498Z,11.20
2019-04-22T23:54:18.799Z,11.10
2019-04-22T23:56:43.568Z,11.20
2019-04-22T23:59:38.562Z,11.10
